Derby, Connecticut
Current Conditions -  °F | °C
As of 11:52 PM on Sunday 19 Oct 2014 (Local Time) from KBDR Reporting Station
Clear Clear  
Wind Chill: 39°   Ceiling: Unl
Heat Index: 42°   Visibility: 10mi
Dew Point: 30°   Wind: 5mph
Humidity: 62%   Direction: 260°W
Pressure: 30.06"   Gusts: NA
Location:  41.32°N, 73.09°W
Report Text: KBDR 200352Z AUTO 26004KT 10SM CLR 06/M01 A3006 RMK AO2 SLP178 T00561011
Loading
Personal Weather Stations






























Interactive Weather Map
Tropical Storm Tracking
New forecast layout! Learn more

10-Day Weather Forecast

Advertisements
Track Severe Weather on mobile